Rockenbach Airport

Jump to: basic info | weather | runways | comments

Related pages: nearby airports | nearby navaids | notams | map

Basic information (top)

Codes: LL97
Location: lon 42.338902, lat -88.084801, elev 800 ft / 244 m msl
Status: small_airport

Weather (top)

Current conditions for Waukegan Regional Airport 11nm (20km) ENE (rec'd 2015/02/01 03:55Z):

KUGN 010355Z AUTO 05008KT 1SM -SN BR BKN005 OVC013 M01/M02 A3016 RMK AO2 SLP224 P0000 T10111017

Airport forecast for Kenosha Regional Airport 17nm (31km) NNE (rec'd 2015/01/31 00:21Z):

TAF KENW 312320Z 0100/0124 01006KT P6SM OVC045 
     FM010200 03007KT P6SM OVC025 
     FM010300 04008KT 2SM -SN BR OVC010 
     FM010500 05013KT 1SM -SN BR OVC008 
     FM010700 05014G21KT 1SM -SN BLSN OVC008 
     FM011700 06020G28KT 3/4SM -SN BLSN OVC008

Runways (top)

N/S: 2,000 x 100 ft (610 x 30 m) — grass — not lighted

Latest comments (top)

No comments yet for Rockenbach Airport

More... (top)

See also NOTAMs and nearby airports and navaids, or visit the Rockenbach Airport page at the main OurAirports website..